createdAt,value
2022-08-20T00:00:12.926Z,822.00
2022-08-20T00:01:13.564Z,821.00
2022-08-20T00:02:14.217Z,822.00
2022-08-20T00:03:14.521Z,821.00
2022-08-20T00:04:15.553Z,818.00
2022-08-20T00:05:14.573Z,824.00
2022-08-20T00:06:15.998Z,824.00
2022-08-20T00:07:15.883Z,822.00
2022-08-20T00:08:16.439Z,821.00
2022-08-20T00:09:17.949Z,821.00
2022-08-20T00:10:17.819Z,822.00
2022-08-20T00:11:19.228Z,811.00
2022-08-20T00:12:18.683Z,821.00
2022-08-20T00:12:27.416Z,821.00
2022-08-20T00:13:27.656Z,821.00
2022-08-20T00:14:27.939Z,820.00
2022-08-20T00:15:28.809Z,820.00
2022-08-20T00:16:30.280Z,820.00
2022-08-20T00:17:30.792Z,820.00
2022-08-20T00:18:31.420Z,819.00
2022-08-20T00:19:31.694Z,818.00
2022-08-20T00:20:32.286Z,818.00
2022-08-20T00:21:32.867Z,820.00
2022-08-20T00:22:32.512Z,819.00
2022-08-20T00:23:34.040Z,821.00
2022-08-20T00:24:33.727Z,820.00
2022-08-20T00:25:34.509Z,819.00
2022-08-20T00:26:34.850Z,820.00
2022-08-20T00:27:35.328Z,820.00
2022-08-20T00:28:35.835Z,821.00
2022-08-20T00:29:37.818Z,823.00
2022-08-20T00:30:38.165Z,821.00
2022-08-20T00:31:39.033Z,821.00
2022-08-20T00:32:38.448Z,822.00
2022-08-20T00:33:38.903Z,824.00
2022-08-20T00:34:39.806Z,825.00
2022-08-20T00:35:41.253Z,823.00
2022-08-20T00:35:50.985Z,813.00
2022-08-20T00:36:51.605Z,822.00
2022-08-20T00:37:52.256Z,821.00
2022-08-20T00:38:52.694Z,824.00
2022-08-20T00:39:53.069Z,825.00
2022-08-20T00:40:53.394Z,825.00
2022-08-20T00:41:53.750Z,824.00
2022-08-20T00:42:54.528Z,824.00
2022-08-20T00:43:55.957Z,823.00
2022-08-20T00:44:55.550Z,823.00
2022-08-20T00:45:55.992Z,823.00
2022-08-20T00:46:56.698Z,822.00
2022-08-20T00:47:57.949Z,811.00
2022-08-20T00:48:57.133Z,812.00
2022-08-20T00:49:58.664Z,810.00
2022-08-20T00:50:58.638Z,810.00
2022-08-20T00:51:59.151Z,809.00
2022-08-20T00:52:58.821Z,810.00
2022-08-20T00:54:00.547Z,810.00
2022-08-20T00:55:00.627Z,810.00
2022-08-20T00:58:00.792Z,821.00
2022-08-20T00:58:52.686Z,821.00
2022-08-20T00:59:54.389Z,821.00
2022-08-20T01:00:54.635Z,821.00
2022-08-20T01:01:56.547Z,820.00
2022-08-20T01:02:54.833Z,820.00
2022-08-20T01:03:56.743Z,820.00
2022-08-20T01:04:55.908Z,821.00
2022-08-20T01:05:57.176Z,821.00
2022-08-20T01:06:57.557Z,820.00
2022-08-20T01:07:58.057Z,821.00
2022-08-20T01:08:57.212Z,821.00
2022-08-20T01:09:59.539Z,809.00
2022-08-20T01:10:58.585Z,820.00
2022-08-20T01:12:00.058Z,820.00
2022-08-20T01:13:00.929Z,820.00
2022-08-20T01:14:01.739Z,821.00
2022-08-20T01:15:02.199Z,821.00
2022-08-20T01:16:02.538Z,820.00
2022-08-20T01:17:02.924Z,820.00
2022-08-20T01:17:12.756Z,819.00
2022-08-20T01:18:12.413Z,820.00
2022-08-20T01:19:29.845Z,819.00
2022-08-20T01:20:13.123Z,820.00
2022-08-20T01:21:14.189Z,820.00
2022-08-20T01:22:14.529Z,820.00
2022-08-20T01:23:14.745Z,820.00
2022-08-20T01:24:15.017Z,820.00
2022-08-20T01:25:15.920Z,820.00
2022-08-20T01:26:16.228Z,820.00
2022-08-20T01:27:16.789Z,818.00
2022-08-20T01:28:17.447Z,820.00
2022-08-20T01:29:17.588Z,821.00
2022-08-20T01:30:18.442Z,821.00
2022-08-20T01:31:19.294Z,821.00
2022-08-20T01:32:18.046Z,820.00
2022-08-20T01:33:19.283Z,821.00
2022-08-20T01:34:20.014Z,820.00
2022-08-20T01:35:20.585Z,821.00
2022-08-20T01:35:29.332Z,821.00
2022-08-20T01:36:30.782Z,821.00
2022-08-20T01:37:31.719Z,821.00
2022-08-20T01:38:30.586Z,821.00
2022-08-20T01:39:32.114Z,821.00
2022-08-20T01:40:31.491Z,820.00
2022-08-20T01:41:33.475Z,820.00
2022-08-20T01:42:34.146Z,821.00
2022-08-20T01:43:35.236Z,820.00
2022-08-20T01:44:33.682Z,821.00
2022-08-20T01:45:35.304Z,821.00
2022-08-20T01:46:35.682Z,809.00
2022-08-20T01:47:38.565Z,821.00
2022-08-20T01:48:35.066Z,821.00
2022-08-20T01:49:36.487Z,821.00
2022-08-20T01:50:37.423Z,821.00
2022-08-20T01:51:38.296Z,820.00
2022-08-20T01:52:38.677Z,822.00
2022-08-20T01:53:38.826Z,821.00
2022-08-20T01:54:39.524Z,821.00
2022-08-20T01:55:39.906Z,821.00
2022-08-20T01:55:48.684Z,822.00
2022-08-20T01:56:49.421Z,825.00
2022-08-20T01:57:50.738Z,825.00
2022-08-20T01:58:55.851Z,824.00
2022-08-20T01:59:50.324Z,824.00
2022-08-20T02:00:51.795Z,825.00
2022-08-20T02:01:52.311Z,823.00
2022-08-20T02:02:51.941Z,825.00
2022-08-20T02:03:53.463Z,824.00
2022-08-20T02:04:52.723Z,824.00
2022-08-20T02:05:54.588Z,826.00
2022-08-20T02:06:56.243Z,826.00
2022-08-20T02:07:54.706Z,816.00
2022-08-20T02:08:55.064Z,814.00
2022-08-20T02:09:57.000Z,813.00
2022-08-20T02:10:57.272Z,812.00
2022-08-20T02:11:56.480Z,813.00
2022-08-20T02:12:56.498Z,813.00
2022-08-20T02:13:58.429Z,813.00
2022-08-20T02:14:58.335Z,812.00
2022-08-20T02:16:00.140Z,804.00
2022-08-20T02:16:59.623Z,824.00
2022-08-20T02:18:00.495Z,824.00
2022-08-20T02:19:01.012Z,825.00
2022-08-20T02:19:09.728Z,814.00
2022-08-20T02:20:11.482Z,814.00
2022-08-20T02:21:12.165Z,823.00
2022-08-20T02:22:12.777Z,823.00
2022-08-20T02:23:13.532Z,822.00
2022-08-20T02:24:13.838Z,823.00
2022-08-20T02:25:14.438Z,813.00
2022-08-20T02:26:14.910Z,814.00
2022-08-20T02:27:15.467Z,823.00
2022-08-20T02:28:16.100Z,824.00
2022-08-20T02:29:16.638Z,823.00
2022-08-20T02:30:21.234Z,822.00
2022-08-20T02:31:17.232Z,822.00
2022-08-20T02:32:32.223Z,823.00
2022-08-20T02:33:18.492Z,823.00
2022-08-20T02:34:22.900Z,824.00
2022-08-20T02:35:19.268Z,822.00
2022-08-20T02:36:21.128Z,823.00
2022-08-20T02:37:21.584Z,822.00
2022-08-20T02:38:22.094Z,822.00
2022-08-20T02:38:30.801Z,821.00
2022-08-20T02:39:32.304Z,822.00
2022-08-20T02:40:31.645Z,822.00
2022-08-20T02:41:32.092Z,823.00
2022-08-20T02:42:33.983Z,820.00
2022-08-20T02:43:34.014Z,824.00
2022-08-20T02:44:34.519Z,824.00
2022-08-20T02:45:34.775Z,823.00
2022-08-20T02:46:34.033Z,823.00
2022-08-20T02:47:35.371Z,824.00
2022-08-20T02:48:35.511Z,824.00
2022-08-20T02:49:36.071Z,823.00
2022-08-20T02:50:36.918Z,822.00
2022-08-20T02:51:37.122Z,822.00
2022-08-20T02:52:37.622Z,823.00
2022-08-20T02:53:38.188Z,822.00
2022-08-20T02:54:38.373Z,822.00
2022-08-20T02:55:38.586Z,822.00
2022-08-20T02:56:39.135Z,823.00
2022-08-20T02:57:38.627Z,822.00
2022-08-20T02:58:40.529Z,821.00
2022-08-20T02:58:49.745Z,813.00
2022-08-20T02:59:50.997Z,824.00
2022-08-20T03:00:51.125Z,823.00
2022-08-20T03:01:59.316Z,823.00
2022-08-20T03:02:51.029Z,823.00
2022-08-20T03:03:52.985Z,822.00
2022-08-20T03:04:53.323Z,822.00
2022-08-20T03:05:53.478Z,822.00
2022-08-20T03:06:53.940Z,811.00
2022-08-20T03:07:54.163Z,812.00
2022-08-20T03:08:54.894Z,812.00
2022-08-20T03:09:54.977Z,812.00
2022-08-20T03:10:55.524Z,822.00
2022-08-20T03:11:55.539Z,822.00
2022-08-20T03:12:56.534Z,822.00
2022-08-20T03:13:57.347Z,823.00
2022-08-20T03:14:57.213Z,822.00
2022-08-20T03:15:59.295Z,823.00
2022-08-20T03:16:58.533Z,822.00
2022-08-20T03:18:00.060Z,823.00
2022-08-20T03:18:08.711Z,823.00
2022-08-20T03:19:10.571Z,822.00
2022-08-20T03:20:10.781Z,823.00
2022-08-20T03:21:11.556Z,823.00
2022-08-20T03:22:11.420Z,823.00
2022-08-20T03:23:12.795Z,823.00
2022-08-20T03:24:12.947Z,823.00
2022-08-20T03:25:13.609Z,824.00
2022-08-20T03:26:14.604Z,825.00
2022-08-20T03:27:15.213Z,824.00
2022-08-20T03:28:15.699Z,823.00
2022-08-20T03:29:16.269Z,823.00
2022-08-20T03:30:16.646Z,822.00
2022-08-20T03:31:17.205Z,822.00
2022-08-20T03:32:16.671Z,823.00
2022-08-20T03:33:18.532Z,823.00
2022-08-20T03:34:18.767Z,822.00
2022-08-20T03:35:19.440Z,822.00
2022-08-20T03:36:20.856Z,822.00
2022-08-20T03:37:18.824Z,822.00
2022-08-20T03:37:28.023Z,822.00
2022-08-20T03:38:32.875Z,822.00
2022-08-20T03:39:29.366Z,822.00
2022-08-20T03:40:31.293Z,821.00
2022-08-20T03:41:30.201Z,821.00
2022-08-20T03:42:30.504Z,822.00
2022-08-20T03:43:30.562Z,822.00
2022-08-20T03:44:31.999Z,822.00
2022-08-20T03:45:31.025Z,823.00
2022-08-20T03:46:32.124Z,823.00
2022-08-20T03:47:32.973Z,812.00
2022-08-20T03:48:32.475Z,823.00
2022-08-20T03:49:32.772Z,823.00
2022-08-20T03:50:34.383Z,822.00
2022-08-20T03:51:58.198Z,822.00
2022-08-20T03:52:34.448Z,822.00
2022-08-20T03:53:35.994Z,824.00
2022-08-20T03:54:36.344Z,825.00
2022-08-20T03:55:36.562Z,824.00
2022-08-20T03:56:37.181Z,824.00
2022-08-20T03:57:37.280Z,824.00
2022-08-20T03:58:37.804Z,823.00
2022-08-20T03:58:50.838Z,821.00
2022-08-20T03:59:50.514Z,823.00
2022-08-20T04:00:50.632Z,823.00
2022-08-20T04:01:52.635Z,823.00
2022-08-20T04:02:52.124Z,822.00
2022-08-20T04:03:55.300Z,822.00
2022-08-20T04:04:53.306Z,814.00
2022-08-20T04:05:53.876Z,814.00
2022-08-20T04:06:55.181Z,814.00
2022-08-20T04:07:55.416Z,813.00
2022-08-20T04:08:54.839Z,813.00
2022-08-20T04:09:56.574Z,824.00
2022-08-20T04:10:57.130Z,824.00
2022-08-20T04:11:57.550Z,824.00
2022-08-20T04:12:58.558Z,823.00
2022-08-20T04:13:58.143Z,822.00
2022-08-20T04:14:59.587Z,821.00
2022-08-20T04:15:59.171Z,822.00
2022-08-20T04:17:00.248Z,823.00
2022-08-20T04:17:59.421Z,823.00
2022-08-20T04:19:02.507Z,822.00
2022-08-20T04:20:00.677Z,824.00
2022-08-20T04:21:02.227Z,825.00
2022-08-20T04:21:10.998Z,825.00
2022-08-20T04:22:12.320Z,826.00
2022-08-20T04:23:12.535Z,825.00
2022-08-20T04:24:22.694Z,824.00
2022-08-20T04:25:15.922Z,824.00
2022-08-20T04:26:12.577Z,825.00
2022-08-20T04:27:14.160Z,824.00
2022-08-20T04:28:15.100Z,823.00
2022-08-20T04:29:15.687Z,824.00
2022-08-20T04:30:16.305Z,826.00
2022-08-20T04:31:16.866Z,826.00
2022-08-20T04:32:17.915Z,825.00
2022-08-20T04:33:17.098Z,826.00
2022-08-20T04:34:17.506Z,825.00
2022-08-20T04:35:18.796Z,824.00
2022-08-20T04:36:19.196Z,823.00
2022-08-20T04:37:19.524Z,824.00
2022-08-20T04:38:20.179Z,823.00
2022-08-20T04:39:20.634Z,823.00
2022-08-20T04:40:21.375Z,822.00
2022-08-20T04:41:23.521Z,822.00
2022-08-20T04:41:31.426Z,822.00
2022-08-20T04:42:32.457Z,823.00
2022-08-20T04:43:31.499Z,823.00
2022-08-20T04:44:32.570Z,823.00
2022-08-20T04:45:32.998Z,823.00
2022-08-20T04:46:33.839Z,822.00
2022-08-20T04:47:34.737Z,822.00
2022-08-20T04:48:33.028Z,824.00
2022-08-20T04:49:33.727Z,824.00
2022-08-20T04:50:34.828Z,823.00
2022-08-20T04:51:35.255Z,822.00
2022-08-20T04:52:34.794Z,822.00
2022-08-20T04:53:35.922Z,812.00
2022-08-20T04:54:36.653Z,822.00
2022-08-20T04:55:36.377Z,822.00
2022-08-20T04:56:38.035Z,822.00
2022-08-20T04:57:38.939Z,822.00
2022-08-20T04:58:39.602Z,820.00
2022-08-20T04:59:40.123Z,822.00
2022-08-20T05:00:40.972Z,823.00
2022-08-20T05:00:50.332Z,822.00
2022-08-20T05:01:50.416Z,822.00
2022-08-20T05:02:51.972Z,822.00
2022-08-20T05:03:52.675Z,823.00
2022-08-20T05:04:53.010Z,813.00
2022-08-20T05:05:53.072Z,812.00
2022-08-20T05:06:53.302Z,811.00
2022-08-20T05:07:52.899Z,822.00
2022-08-20T05:08:53.408Z,822.00
2022-08-20T05:09:54.972Z,822.00
2022-08-20T05:10:56.030Z,822.00
2022-08-20T05:11:55.385Z,821.00
2022-08-20T05:12:57.371Z,823.00
2022-08-20T05:13:56.335Z,822.00
2022-08-20T05:14:57.396Z,822.00
2022-08-20T05:15:58.146Z,822.00
2022-08-20T05:16:58.680Z,781.00
2022-08-20T05:17:59.096Z,823.00
2022-08-20T05:19:00.026Z,822.00
2022-08-20T05:20:00.422Z,822.00
2022-08-20T05:21:01.068Z,822.00
2022-08-20T05:21:10.283Z,822.00
2022-08-20T05:22:12.099Z,822.00
2022-08-20T05:23:12.543Z,822.00
2022-08-20T05:24:13.490Z,822.00
2022-08-20T05:25:13.834Z,824.00
2022-08-20T05:26:14.512Z,824.00
2022-08-20T05:27:24.920Z,824.00
2022-08-20T05:28:14.000Z,824.00
2022-08-20T05:29:15.762Z,824.00
2022-08-20T05:30:16.162Z,825.00
2022-08-20T05:31:15.802Z,826.00
2022-08-20T05:32:16.565Z,826.00
2022-08-20T05:33:18.238Z,828.00
2022-08-20T05:34:19.007Z,825.00
2022-08-20T05:35:19.149Z,824.00
2022-08-20T05:36:19.846Z,825.00
2022-08-20T05:37:19.766Z,825.00
2022-08-20T05:38:21.285Z,824.00
2022-08-20T05:39:21.986Z,824.00
2022-08-20T05:40:22.448Z,824.00
2022-08-20T05:40:31.105Z,824.00
2022-08-20T05:41:32.728Z,824.00
2022-08-20T05:42:33.527Z,824.00
2022-08-20T05:43:33.770Z,814.00
2022-08-20T05:44:34.149Z,814.00
2022-08-20T05:45:35.086Z,813.00
2022-08-20T05:46:35.643Z,826.00
2022-08-20T05:47:35.573Z,814.00
2022-08-20T05:48:34.829Z,825.00
2022-08-20T05:49:36.404Z,824.00
2022-08-20T05:50:36.153Z,824.00
2022-08-20T05:51:37.359Z,824.00
2022-08-20T05:52:37.186Z,825.00
2022-08-20T05:53:39.053Z,816.00
2022-08-20T05:54:39.338Z,824.00
2022-08-20T05:55:38.809Z,823.00
2022-08-20T05:56:40.525Z,824.00
2022-08-20T05:57:40.321Z,823.00
2022-08-20T05:58:41.782Z,822.00
2022-08-20T05:59:41.568Z,822.00
2022-08-20T05:59:51.056Z,822.00
2022-08-20T06:00:52.258Z,824.00
2022-08-20T06:01:52.152Z,814.00
2022-08-20T06:02:53.694Z,823.00
2022-08-20T06:03:54.198Z,813.00
2022-08-20T06:04:56.117Z,822.00
2022-08-20T06:05:54.208Z,813.00
2022-08-20T06:06:55.021Z,814.00
2022-08-20T06:07:59.456Z,824.00
2022-08-20T06:08:56.183Z,823.00
2022-08-20T06:09:57.620Z,822.00
2022-08-20T06:10:58.538Z,821.00
2022-08-20T06:11:59.687Z,821.00
2022-08-20T06:12:59.107Z,821.00
2022-08-20T06:14:00.597Z,822.00
2022-08-20T06:15:00.794Z,822.00
2022-08-20T06:16:01.323Z,825.00
2022-08-20T06:17:00.511Z,826.00
2022-08-20T06:18:01.090Z,826.00
2022-08-20T06:19:02.689Z,825.00
2022-08-20T06:20:02.131Z,826.00
2022-08-20T06:21:03.796Z,826.00
2022-08-20T06:21:12.479Z,820.00
2022-08-20T06:22:18.774Z,828.00
2022-08-20T06:23:14.090Z,831.00
2022-08-20T06:24:14.397Z,830.00
2022-08-20T06:25:14.821Z,832.00
2022-08-20T06:26:16.287Z,830.00
2022-08-20T06:27:15.638Z,829.00
2022-08-20T06:28:17.261Z,832.00
2022-08-20T06:29:17.626Z,833.00
2022-08-20T06:30:17.930Z,833.00
2022-08-20T06:31:18.113Z,833.00
2022-08-20T06:32:18.336Z,832.00
2022-08-20T06:33:19.014Z,832.00
2022-08-20T06:34:19.661Z,832.00
2022-08-20T06:35:20.130Z,831.00
2022-08-20T06:36:19.308Z,832.00
2022-08-20T06:37:20.920Z,834.00
2022-08-20T06:38:20.890Z,833.00
2022-08-20T06:39:21.777Z,833.00
2022-08-20T06:40:22.279Z,833.00
2022-08-20T06:41:22.710Z,832.00
2022-08-20T06:42:21.959Z,833.00
2022-08-20T06:43:23.252Z,833.00
2022-08-20T06:43:31.876Z,833.00
2022-08-20T06:44:32.335Z,833.00
2022-08-20T06:45:34.252Z,834.00
2022-08-20T06:46:34.788Z,831.00
2022-08-20T06:47:34.827Z,833.00
2022-08-20T06:48:35.448Z,833.00
2022-08-20T06:49:35.681Z,832.00
2022-08-20T06:50:36.192Z,833.00
2022-08-20T06:51:36.914Z,835.00
2022-08-20T06:52:52.438Z,834.00
2022-08-20T06:53:37.345Z,833.00
2022-08-20T06:54:39.258Z,832.00
2022-08-20T06:55:39.969Z,831.00
2022-08-20T06:56:39.493Z,832.00
2022-08-20T06:57:40.916Z,832.00
2022-08-20T06:58:41.072Z,831.00
2022-08-20T06:59:41.603Z,831.00
2022-08-20T07:00:42.432Z,832.00
2022-08-20T07:01:41.441Z,834.00
2022-08-20T07:02:41.539Z,822.00
2022-08-20T07:03:54.362Z,832.00
2022-08-20T07:03:55.453Z,823.00
2022-08-20T07:04:51.662Z,833.00
2022-08-20T07:05:53.461Z,823.00
2022-08-20T07:06:53.516Z,831.00
2022-08-20T07:07:53.778Z,829.00
2022-08-20T07:08:54.665Z,829.00
2022-08-20T07:09:54.681Z,829.00
2022-08-20T07:10:54.805Z,826.00
2022-08-20T07:11:54.953Z,826.00
2022-08-20T07:12:55.300Z,825.00
2022-08-20T07:13:54.933Z,825.00
2022-08-20T07:14:56.094Z,825.00
2022-08-20T07:15:56.819Z,826.00
2022-08-20T07:16:57.652Z,829.00
2022-08-20T07:18:01.208Z,825.00
2022-08-20T07:18:58.134Z,824.00
2022-08-20T07:19:59.798Z,823.00
2022-08-20T07:21:00.739Z,822.00
2022-08-20T07:22:01.003Z,821.00
2022-08-20T07:23:00.806Z,822.00
2022-08-20T07:24:02.141Z,822.00
2022-08-20T07:24:11.833Z,813.00
2022-08-20T07:25:13.749Z,821.00
2022-08-20T07:26:14.305Z,821.00
2022-08-20T07:27:14.918Z,821.00
2022-08-20T07:28:15.758Z,820.00
2022-08-20T07:29:16.241Z,820.00
2022-08-20T07:30:15.869Z,819.00
2022-08-20T07:31:16.340Z,816.00
2022-08-20T07:32:16.436Z,813.00
2022-08-20T07:33:16.937Z,810.00
2022-08-20T07:34:17.883Z,807.00
2022-08-20T07:35:18.260Z,802.00
2022-08-20T07:36:20.038Z,800.00
2022-08-20T07:37:20.642Z,759.00
2022-08-20T07:38:21.461Z,805.00
2022-08-20T07:39:22.343Z,807.00
2022-08-20T07:40:25.913Z,805.00
2022-08-20T07:41:22.700Z,801.00
2022-08-20T07:42:23.740Z,801.00
2022-08-20T07:43:24.590Z,802.00
2022-08-20T07:44:30.850Z,805.00
2022-08-20T07:45:23.727Z,796.00
2022-08-20T07:46:23.890Z,801.00
2022-08-20T07:47:23.918Z,802.00
2022-08-20T07:47:32.701Z,801.00
2022-08-20T07:48:33.519Z,802.00
2022-08-20T07:49:35.509Z,792.00
2022-08-20T07:50:36.222Z,801.00
2022-08-20T07:51:35.727Z,801.00
2022-08-20T07:52:37.098Z,802.00
2022-08-20T07:53:37.724Z,802.00
2022-08-20T07:54:38.611Z,801.00
2022-08-20T07:55:38.268Z,813.00
2022-08-20T07:56:40.105Z,821.00
2022-08-20T07:57:38.976Z,816.00
2022-08-20T07:58:39.907Z,812.00
2022-08-20T07:59:40.082Z,820.00
2022-08-20T08:00:40.367Z,811.00
2022-08-20T08:01:41.152Z,818.00
2022-08-20T08:02:41.262Z,821.00
2022-08-20T08:03:49.910Z,820.00
2022-08-20T08:04:41.990Z,813.00
2022-08-20T08:05:42.510Z,820.00
2022-08-20T08:06:43.018Z,821.00
2022-08-20T08:07:43.109Z,820.00
2022-08-20T08:08:43.966Z,818.00
2022-08-20T08:09:43.967Z,816.00
2022-08-20T08:10:44.637Z,816.00
2022-08-20T08:11:47.729Z,814.00
2022-08-20T08:11:55.961Z,807.00
2022-08-20T08:12:56.557Z,807.00
2022-08-20T08:13:57.195Z,816.00
2022-08-20T08:14:57.316Z,820.00
2022-08-20T08:15:57.727Z,820.00
2022-08-20T08:16:58.032Z,822.00
2022-08-20T08:17:58.969Z,822.00
2022-08-20T08:18:59.382Z,822.00
2022-08-20T08:20:00.005Z,822.00
2022-08-20T08:21:00.727Z,821.00
2022-08-20T08:22:01.451Z,819.00
2022-08-20T08:23:01.967Z,821.00
2022-08-20T08:24:03.069Z,821.00
2022-08-20T08:25:03.257Z,820.00
2022-08-20T08:26:04.139Z,816.00
2022-08-20T08:27:04.659Z,820.00
2022-08-20T08:28:04.766Z,820.00
